Flight Track Log - Related Links

Times and Time Zones

All times are in EST time to prevent confusion due to time zone crossing. See the EJA749 flight status page for this flight to view local times or setup timezone preferences in your user account.

Time Position Orientation Groundspeed Altitude Reporting Facility
EST Latitude Longitude Course Direction KTS MPH feet Rate Location/Type
Thu 09:01:26 AM 43.7247 -92.3736 123° Southeast 334 384 13,400  Level Minneapolis Center
Thu 09:02:28 AM 43.7292 -92.2250 88° East 407 468 16,500 3,073 Climbing Minneapolis Center
Thu 09:03:29 AM 43.7058 -92.0614 101° East 433 498 19,700 2,195 Climbing Minneapolis Center
Thu 09:04:31 AM 43.6753 -91.8433 101° East 484 557 21,000 634 Climbing Minneapolis Center
Thu 09:05:00 AM 43.9000 -91.6822 90° East  Level FlightAware Approximate
Thu 09:05:32 AM 43.6486 -91.6561 101° East 497 572 21,000  Level Minneapolis Center
Thu 09:06:34 AM 43.6222 -91.4669 101° East 500 575 21,000  Level Minneapolis Center
Thu 09:07:35 AM 43.5953 -91.2767 101° East 505 581 21,000  Level Minneapolis Center
Thu 09:08:37 AM 43.5675 -91.0872 101° East 505 581 21,000  Level Minneapolis Center
Thu 09:09:39 AM 43.5392 -90.8958 101° East 509 586 21,000  Level Minneapolis Center
Thu 09:10:39 AM 43.5097 -90.7064 102° East 511 588 21,000  Level Chicago Center
Thu 09:11:41 AM 43.4808 -90.5167 102° East 509 586 21,000  Level Chicago Center
Thu 09:12:43 AM 43.4472 -90.2900 101° East 505 581 21,000  Level Chicago Center
Thu 09:13:45 AM 43.4153 -90.1042 103° East 506 582 21,000  Level Chicago Center
Thu 09:14:47 AM 43.3883 -89.9158 101° East 504 580 21,000  Level Chicago Center
Thu 09:15:49 AM 43.3558 -89.7297 103° East 503 579 21,000  Level Chicago Center
Thu 09:16:51 AM 43.3267 -89.5417 102° East 505 581 21,000  Level Chicago Center
Thu 09:17:53 AM 43.2908 -89.3175 102° East 503 579 21,000 -1,113 Level Chicago Center
Thu 09:18:55 AM 43.2603 -89.1331 103° East 502 578 18,700 -2,129 Descending Chicago Center
Thu 09:19:57 AM 43.2339 -88.9767 103° East 437 503 16,600 -2,081 Descending Chicago Center
Thu 09:20:59 AM 43.2094 -88.8253 102° East 415 478 14,400 -1,694 Descending Chicago Center
Thu 09:22:01 AM 43.1828 -88.6758 104° East 410 472 13,100 -774 Descending Chicago Center
Thu 09:23:03 AM 43.1531 -88.5025 103° East 396 456 12,800 -581 Descending Chicago Center
Thu 09:24:05 AM 43.0814 -88.4128 138° Southeast 357 411 11,900 -968 Descending Chicago Center
Thu 09:25:07 AM 42.9981 -88.3425 148° Southeast 354 407 10,800 -919 Descending Chicago Center
Thu 09:26:09 AM 42.9153 -88.2736 149° Southeast 351 404 10,000 -484 Descending Chicago Center
Thu 09:27:11 AM 42.8383 -88.2103 149° Southeast 328 377 9,800 -968 Descending Chicago Center
Thu 09:28:13 AM 42.7539 -88.1411 149° Southeast 298 343 8,000 -1,742 Descending Chicago Center
Thu 09:29:15 AM 42.6836 -88.0844 149° Southeast 296 341 6,200 -1,742 Descending Chicago Center
Thu 09:30:17 AM 42.6181 -88.0297 148° Southeast 283 326 4,400 -1,008 Descending Chicago Center
Thu 09:31:20 AM 42.5619 -87.9831 149° Southeast 249 287 4,100 -240 Descending Chicago Center
Thu 09:32:22 AM 42.5217 -87.9308 136° Southeast 231 266 3,900 -484 Descending Chicago Center
Thu 09:33:24 AM 42.5200 -87.8450 91° East 232 267 3,100 -629 Descending Chicago Center
Thu 09:34:26 AM 42.4842 -87.7806 127° Southeast 218 251 2,600 -484 Descending Chicago Center
Thu 09:36:00 AM 42.4167 -87.8667 166° South  Level FlightAware Approximate
Thu 09:43:00 AM 42.4222 -87.8679 166° South  Level Estimated

Login

Don't have an account? Register now (free) for customized features, flight alerts, and more!